createdAt,value
2016-12-08T00:00:16.483Z,1023.56
2016-12-08T00:01:16.440Z,1023.53
2016-12-08T00:02:16.447Z,1023.53
2016-12-08T00:03:16.452Z,1023.59
2016-12-08T00:04:16.458Z,1023.56
2016-12-08T00:05:16.465Z,1023.61
2016-12-08T00:06:16.472Z,1023.6
2016-12-08T00:07:16.478Z,1023.55
2016-12-08T00:08:16.586Z,1023.55
2016-12-08T00:09:16.492Z,1023.64
2016-12-08T00:10:16.499Z,1023.64
2016-12-08T00:11:16.504Z,1023.6
2016-12-08T00:12:16.511Z,1023.64
2016-12-08T00:13:16.519Z,1023.58
2016-12-08T00:14:16.525Z,1023.53
2016-12-08T00:15:16.532Z,1023.52
2016-12-08T00:16:16.588Z,1023.58
2016-12-08T00:17:16.546Z,1023.64
2016-12-08T00:18:16.550Z,1023.58
2016-12-08T00:19:16.557Z,1023.54
2016-12-08T00:20:16.564Z,1023.58
2016-12-08T00:21:16.571Z,1023.62
2016-12-08T00:22:16.627Z,1023.62
2016-12-08T00:23:16.584Z,1023.59
2016-12-08T00:24:16.592Z,1023.61
2016-12-08T00:25:16.599Z,1023.67
2016-12-08T00:26:16.604Z,1023.57
2016-12-08T00:27:16.610Z,1023.55
2016-12-08T00:28:16.617Z,1023.48
2016-12-08T00:29:16.623Z,1023.56
2016-12-08T00:30:16.630Z,1023.55
2016-12-08T00:31:16.636Z,1023.53
2016-12-08T00:32:17.345Z,1023.56
2016-12-08T00:33:16.650Z,1023.48
2016-12-08T00:34:16.707Z,1023.58
2016-12-08T00:35:16.663Z,1023.47
2016-12-08T00:36:16.670Z,1023.45
2016-12-08T00:37:16.975Z,1023.45
2016-12-08T00:38:16.683Z,1023.41
2016-12-08T00:39:16.740Z,1023.37
2016-12-08T00:40:16.696Z,1023.35
2016-12-08T00:41:16.701Z,1023.3
2016-12-08T00:42:16.710Z,1023.29
2016-12-08T00:43:16.766Z,1023.28
2016-12-08T00:44:16.722Z,1023.28
2016-12-08T00:45:16.727Z,1023.27
2016-12-08T00:46:16.735Z,1023.3
2016-12-08T00:47:16.742Z,1023.23
2016-12-08T00:48:16.748Z,1023.28
2016-12-08T00:49:16.755Z,1023.24
2016-12-08T00:50:16.761Z,1023.27
2016-12-08T00:51:16.768Z,1023.21
2016-12-08T00:52:16.776Z,1023.2
2016-12-08T00:53:16.831Z,1023.25
2016-12-08T00:54:17.538Z,1023.25
2016-12-08T00:55:16.794Z,1023.27
2016-12-08T00:56:16.801Z,1023.39
2016-12-08T00:57:16.807Z,1023.34
2016-12-08T00:58:16.812Z,1023.33
2016-12-08T00:59:16.820Z,1023.38
2016-12-08T01:00:16.878Z,1023.34
2016-12-08T01:01:16.833Z,1023.32
2016-12-08T01:02:16.839Z,1023.45
2016-12-08T01:03:16.895Z,1023.36
2016-12-08T01:04:16.852Z,1023.51
2016-12-08T01:05:16.910Z,1023.48
2016-12-08T01:06:16.867Z,1023.44
2016-12-08T01:07:16.874Z,1023.43
2016-12-08T01:08:16.877Z,1023.39
2016-12-08T01:09:16.886Z,1023.42
2016-12-08T01:10:16.891Z,1023.34
2016-12-08T01:11:16.899Z,1023.37
2016-12-08T01:12:16.905Z,1023.39
2016-12-08T01:13:16.911Z,1023.38
2016-12-08T01:14:16.918Z,1023.29
2016-12-08T01:15:16.926Z,1023.3
2016-12-08T01:16:17.082Z,1023.36
2016-12-08T01:17:16.937Z,1023.4
2016-12-08T01:18:16.945Z,1023.36
2016-12-08T01:19:16.951Z,1023.32
2016-12-08T01:20:16.957Z,1023.33
2016-12-08T01:21:16.963Z,1023.26
2016-12-08T01:22:16.969Z,1023.33
2016-12-08T01:23:16.975Z,1023.44
2016-12-08T01:24:16.983Z,1023.35
2016-12-08T01:25:16.990Z,1023.36
2016-12-08T01:26:17.047Z,1023.33
2016-12-08T01:27:17.003Z,1023.39
2016-12-08T01:28:17.009Z,1023.44
2016-12-08T01:29:17.015Z,1023.4
2016-12-08T01:30:17.022Z,1023.46
2016-12-08T01:31:17.028Z,1023.41
2016-12-08T01:32:17.037Z,1023.57
2016-12-08T01:33:17.042Z,1023.54
2016-12-08T01:34:17.048Z,1023.61
2016-12-08T01:35:17.057Z,1023.57
2016-12-08T01:36:17.060Z,1023.57
2016-12-08T01:37:17.068Z,1023.6
2016-12-08T01:38:17.225Z,1023.53
2016-12-08T01:39:17.081Z,1023.62
2016-12-08T01:40:17.088Z,1023.6
2016-12-08T01:41:17.145Z,1023.6
2016-12-08T01:42:17.101Z,1023.68
2016-12-08T01:43:17.157Z,1023.64
2016-12-08T01:44:17.118Z,1023.55
2016-12-08T01:45:17.119Z,1023.54
2016-12-08T01:46:17.176Z,1023.58
2016-12-08T01:47:17.132Z,1023.56
2016-12-08T01:48:17.139Z,1023.6
2016-12-08T01:49:17.147Z,1023.6
2016-12-08T01:50:17.150Z,1023.55
2016-12-08T01:51:17.158Z,1023.56
2016-12-08T01:52:17.215Z,1023.52
2016-12-08T01:53:17.371Z,1023.59
2016-12-08T01:54:17.177Z,1023.67
2016-12-08T01:55:17.184Z,1023.72
2016-12-08T01:56:17.189Z,1023.69
2016-12-08T01:57:17.245Z,1023.57
2016-12-08T01:58:17.202Z,1023.58
2016-12-08T01:59:17.209Z,1023.64
2016-12-08T02:00:17.216Z,1023.69
2016-12-08T02:01:17.221Z,1023.7
2016-12-08T02:02:17.227Z,1023.73
2016-12-08T02:03:17.233Z,1023.57
2016-12-08T02:04:17.240Z,1023.53
2016-12-08T02:05:17.247Z,1023.56
2016-12-08T02:06:17.252Z,1023.57
2016-12-08T02:07:17.259Z,1023.57
2016-12-08T02:08:17.265Z,1023.53
2016-12-08T02:09:17.272Z,1023.55
2016-12-08T02:10:17.277Z,1023.5
2016-12-08T02:11:17.283Z,1023.49
2016-12-08T02:12:17.288Z,1023.47
2016-12-08T02:13:17.296Z,1023.43
2016-12-08T02:14:17.301Z,1023.43
2016-12-08T02:15:17.557Z,1023.39
2016-12-08T02:16:17.315Z,1023.38
2016-12-08T02:17:17.321Z,1023.41
2016-12-08T02:18:17.328Z,1023.39
2016-12-08T02:19:17.333Z,1023.44
2016-12-08T02:20:17.339Z,1023.35
2016-12-08T02:21:17.345Z,1023.42
2016-12-08T02:22:17.352Z,1023.4
2016-12-08T02:23:17.358Z,1023.43
2016-12-08T02:24:17.367Z,1023.41
2016-12-08T02:25:17.372Z,1023.39
2016-12-08T02:26:17.379Z,1023.42
2016-12-08T02:27:17.384Z,1023.43
2016-12-08T02:28:17.440Z,1023.42
2016-12-08T02:29:17.398Z,1023.45
2016-12-08T02:30:17.404Z,1023.41
2016-12-08T02:31:17.412Z,1023.43
2016-12-08T02:32:17.419Z,1023.48
2016-12-08T02:33:17.423Z,1023.43
2016-12-08T02:34:17.430Z,1023.31
2016-12-08T02:35:17.436Z,1023.4
2016-12-08T02:36:17.441Z,1023.33
2016-12-08T02:37:17.697Z,1023.25
2016-12-08T02:38:17.453Z,1023.29
2016-12-08T02:39:17.462Z,1023.23
2016-12-08T02:40:17.468Z,1023.2
2016-12-08T02:41:17.474Z,1023.24
2016-12-08T02:42:17.480Z,1023.24
2016-12-08T02:43:17.485Z,1023.16
2016-12-08T02:44:17.543Z,1023.12
2016-12-08T02:45:17.499Z,1023.06
2016-12-08T02:46:17.507Z,1023.06
2016-12-08T02:47:17.512Z,1023.07
2016-12-08T02:48:17.518Z,1023.03
2016-12-08T02:49:17.574Z,1023.04
2016-12-08T02:50:17.531Z,1023
2016-12-08T02:51:17.539Z,1022.97
2016-12-08T02:52:17.545Z,1022.98
2016-12-08T02:53:17.551Z,1022.95
2016-12-08T02:54:17.557Z,1022.99
2016-12-08T02:55:17.564Z,1022.98
2016-12-08T02:56:17.569Z,1022.99
2016-12-08T02:57:17.576Z,1023
2016-12-08T02:58:17.581Z,1022.96
2016-12-08T02:59:17.590Z,1022.99
2016-12-08T03:00:17.645Z,1023.09
2016-12-08T03:01:18.452Z,1023.13
2016-12-08T03:02:17.608Z,1023.04
2016-12-08T03:03:17.614Z,1022.99
2016-12-08T03:04:17.620Z,1022.98
2016-12-08T03:05:17.627Z,1023.11
2016-12-08T03:06:17.633Z,1023.14
2016-12-08T03:07:17.643Z,1023.09
2016-12-08T03:08:17.646Z,1023.1
2016-12-08T03:09:17.653Z,1023.03
2016-12-08T03:10:17.659Z,1023.06
2016-12-08T03:11:17.663Z,1023.1
2016-12-08T03:12:17.672Z,1023.04
2016-12-08T03:13:17.679Z,1023.15
2016-12-08T03:14:17.734Z,1023.19
2016-12-08T03:15:17.690Z,1023.13
2016-12-08T03:16:17.696Z,1023.15
2016-12-08T03:17:17.703Z,1023.22
2016-12-08T03:18:17.758Z,1023.28
2016-12-08T03:19:17.771Z,1023.37
2016-12-08T03:20:17.723Z,1023.27
2016-12-08T03:21:17.727Z,1023.22
2016-12-08T03:22:17.786Z,1023.16
2016-12-08T03:23:18.390Z,1023.27
2016-12-08T03:24:17.799Z,1023.25
2016-12-08T03:25:17.754Z,1023.22
2016-12-08T03:26:17.760Z,1023.16
2016-12-08T03:27:17.768Z,1023.11
2016-12-08T03:28:17.772Z,1023.13
2016-12-08T03:29:17.779Z,1023.18
2016-12-08T03:30:17.785Z,1023.21
2016-12-08T03:31:17.792Z,1023.19
2016-12-08T03:32:17.798Z,1023.11
2016-12-08T03:33:17.805Z,1023.11
2016-12-08T03:34:17.810Z,1023.03
2016-12-08T03:35:17.818Z,1022.94
2016-12-08T03:36:17.823Z,1023
2016-12-08T03:37:17.829Z,1023.06
2016-12-08T03:38:17.836Z,1023.1
2016-12-08T03:39:17.841Z,1023.1
2016-12-08T03:40:17.847Z,1023.13
2016-12-08T03:41:17.854Z,1023.04
2016-12-08T03:42:17.860Z,1023.05
2016-12-08T03:43:17.866Z,1023.03
2016-12-08T03:44:17.922Z,1023.03
2016-12-08T03:45:18.428Z,1023.08
2016-12-08T03:46:17.886Z,1023.07
2016-12-08T03:47:17.890Z,1023.07
2016-12-08T03:48:17.975Z,1022.98
2016-12-08T03:49:17.901Z,1023.01
2016-12-08T03:50:17.959Z,1023.01
2016-12-08T03:51:17.916Z,1022.99
2016-12-08T03:52:17.921Z,1023.04
2016-12-08T03:53:17.929Z,1023.03
2016-12-08T03:54:17.933Z,1023.02
2016-12-08T03:55:17.940Z,1023.01
2016-12-08T03:56:17.997Z,1022.98
2016-12-08T03:57:17.953Z,1022.97
2016-12-08T03:58:17.959Z,1022.93
2016-12-08T03:59:17.967Z,1022.91
2016-12-08T04:00:17.974Z,1022.95
2016-12-08T04:01:17.978Z,1022.98
2016-12-08T04:02:17.986Z,1022.93
2016-12-08T04:03:18.043Z,1022.91
2016-12-08T04:04:18.002Z,1022.91
2016-12-08T04:05:18.004Z,1022.92
2016-12-08T04:06:18.010Z,1022.86
2016-12-08T04:07:18.016Z,1022.86
2016-12-08T04:08:18.023Z,1022.88
2016-12-08T04:09:18.028Z,1022.92
2016-12-08T04:10:18.036Z,1022.96
2016-12-08T04:11:18.042Z,1022.99
2016-12-08T04:12:18.048Z,1023.01
2016-12-08T04:13:18.056Z,1022.92
2016-12-08T04:14:18.061Z,1022.93
2016-12-08T04:15:18.116Z,1022.97
2016-12-08T04:16:18.073Z,1022.97
2016-12-08T04:17:18.080Z,1022.92
2016-12-08T04:18:18.134Z,1022.92
2016-12-08T04:19:18.092Z,1022.95
2016-12-08T04:20:18.099Z,1022.89
2016-12-08T04:21:18.104Z,1022.91
2016-12-08T04:22:18.113Z,1022.92
2016-12-08T04:23:18.168Z,1022.93
2016-12-08T04:24:18.125Z,1022.92
2016-12-08T04:25:18.130Z,1022.9
2016-12-08T04:26:18.138Z,1022.87
2016-12-08T04:27:18.143Z,1022.86
2016-12-08T04:28:18.150Z,1022.93
2016-12-08T04:29:18.155Z,1022.88
2016-12-08T04:30:18.160Z,1022.95
2016-12-08T04:31:19.120Z,1022.89
2016-12-08T04:32:18.175Z,1022.94
2016-12-08T04:33:18.183Z,1022.94
2016-12-08T04:34:18.186Z,1022.91
2016-12-08T04:35:18.194Z,1022.95
2016-12-08T04:36:18.200Z,1022.97
2016-12-08T04:37:18.207Z,1023.02
2016-12-08T04:38:18.212Z,1022.95
2016-12-08T04:39:18.220Z,1022.92
2016-12-08T04:40:18.226Z,1022.93
2016-12-08T04:41:18.231Z,1023.01
2016-12-08T04:42:18.238Z,1023.08
2016-12-08T04:43:18.243Z,1023.11
2016-12-08T04:44:18.253Z,1023.03
2016-12-08T04:45:18.307Z,1023
2016-12-08T04:46:18.314Z,1022.96
2016-12-08T04:47:18.270Z,1022.97
2016-12-08T04:48:18.276Z,1022.99
2016-12-08T04:49:18.282Z,1022.98
2016-12-08T04:50:18.288Z,1022.96
2016-12-08T04:51:18.360Z,1022.93
2016-12-08T04:52:18.300Z,1022.8
2016-12-08T04:53:19.308Z,1022.8
2016-12-08T04:54:18.315Z,1022.75
2016-12-08T04:55:18.321Z,1022.76
2016-12-08T04:56:18.328Z,1022.71
2016-12-08T04:57:18.333Z,1022.71
2016-12-08T04:58:18.339Z,1022.67
2016-12-08T04:59:18.346Z,1022.76
2016-12-08T05:00:18.353Z,1022.72
2016-12-08T05:01:18.358Z,1022.76
2016-12-08T05:02:18.416Z,1022.77
2016-12-08T05:03:18.370Z,1022.76
2016-12-08T05:04:18.376Z,1022.77
2016-12-08T05:05:18.384Z,1022.79
2016-12-08T05:06:18.390Z,1022.7
2016-12-08T05:07:18.396Z,1022.74
2016-12-08T05:08:18.414Z,1022.78
2016-12-08T05:09:18.410Z,1022.78
2016-12-08T05:10:18.416Z,1022.83
2016-12-08T05:11:18.420Z,1022.81
2016-12-08T05:12:18.428Z,1022.75
2016-12-08T05:13:18.435Z,1022.76
2016-12-08T05:14:18.440Z,1022.76
2016-12-08T05:15:18.448Z,1022.76
2016-12-08T05:16:18.453Z,1022.76
2016-12-08T05:17:18.510Z,1022.78
2016-12-08T05:18:18.517Z,1022.78
2016-12-08T05:19:18.472Z,1022.82
2016-12-08T05:20:18.479Z,1022.84
2016-12-08T05:21:18.485Z,1022.79
2016-12-08T05:22:18.491Z,1022.77
2016-12-08T05:23:18.548Z,1022.8
2016-12-08T05:24:18.555Z,1022.78
2016-12-08T05:25:18.510Z,1022.77
2016-12-08T05:26:18.518Z,1022.79
2016-12-08T05:27:18.524Z,1022.74
2016-12-08T05:28:18.529Z,1022.77
2016-12-08T05:29:18.535Z,1022.77
2016-12-08T05:30:18.542Z,1022.74
2016-12-08T05:31:18.548Z,1022.77
2016-12-08T05:32:18.555Z,1022.74
2016-12-08T05:33:18.560Z,1022.77
2016-12-08T05:34:18.572Z,1022.79
2016-12-08T05:35:18.573Z,1022.84
2016-12-08T05:36:18.581Z,1022.86
2016-12-08T05:37:18.588Z,1022.88
2016-12-08T05:38:18.594Z,1022.85
2016-12-08T05:39:18.650Z,1022.8
2016-12-08T05:40:18.606Z,1022.82
2016-12-08T05:41:18.662Z,1022.83
2016-12-08T05:42:18.620Z,1022.89
2016-12-08T05:43:18.625Z,1022.91
2016-12-08T05:44:18.631Z,1022.94
2016-12-08T05:45:18.639Z,1022.98
2016-12-08T05:46:18.645Z,1022.97
2016-12-08T05:47:18.650Z,1022.99
2016-12-08T05:48:18.657Z,1022.94
2016-12-08T05:49:18.663Z,1022.91
2016-12-08T05:50:18.671Z,1022.98
2016-12-08T05:51:18.675Z,1023.07
2016-12-08T05:52:19.532Z,1023.01
2016-12-08T05:53:18.989Z,1023.03
2016-12-08T05:54:18.694Z,1022.94
2016-12-08T05:55:18.700Z,1022.92
2016-12-08T05:56:18.708Z,1022.9
2016-12-08T05:57:18.715Z,1022.98
2016-12-08T05:58:18.720Z,1023.03
2016-12-08T05:59:18.728Z,1022.99
2016-12-08T06:00:18.734Z,1022.95
2016-12-08T06:01:18.840Z,1022.97
2016-12-08T06:02:18.746Z,1022.95
2016-12-08T06:03:18.752Z,1022.93
2016-12-08T06:04:18.759Z,1022.93
2016-12-08T06:05:18.764Z,1022.92
2016-12-08T06:06:18.770Z,1022.93
2016-12-08T06:07:18.778Z,1022.91
2016-12-08T06:08:18.784Z,1022.91
2016-12-08T06:09:18.789Z,1022.89
2016-12-08T06:10:18.814Z,1022.84
2016-12-08T06:11:18.802Z,1022.85
2016-12-08T06:12:18.859Z,1022.82
2016-12-08T06:13:18.874Z,1022.85
2016-12-08T06:14:18.822Z,1022.86
2016-12-08T06:15:18.828Z,1022.86
2016-12-08T06:16:18.834Z,1022.84
2016-12-08T06:17:18.866Z,1022.86
2016-12-08T06:18:18.848Z,1022.8
2016-12-08T06:19:18.926Z,1022.86
2016-12-08T06:20:18.862Z,1022.91
2016-12-08T06:21:18.961Z,1022.95
2016-12-08T06:22:18.911Z,1022.98
2016-12-08T06:23:18.928Z,1023.03
2016-12-08T06:24:18.883Z,1023.04
2016-12-08T06:25:18.891Z,1023.05
2016-12-08T06:26:18.995Z,1023.07
2016-12-08T06:27:18.902Z,1023.08
2016-12-08T06:28:19.889Z,1023.13
2016-12-08T06:29:18.968Z,1023.15
2016-12-08T06:30:19.622Z,1023.09
2016-12-08T06:31:18.927Z,1023.13
2016-12-08T06:32:18.935Z,1023.01
2016-12-08T06:33:18.982Z,1023.07
2016-12-08T06:34:18.946Z,1023.1
2016-12-08T06:35:19.001Z,1023.17
2016-12-08T06:36:18.959Z,1023.2
2016-12-08T06:37:18.966Z,1023.2
2016-12-08T06:38:19.003Z,1023.13
2016-12-08T06:39:19.047Z,1023.09
2016-12-08T06:40:19.021Z,1023.08
2016-12-08T06:41:18.990Z,1023.14
2016-12-08T06:42:19.007Z,1023.22
2016-12-08T06:43:19.003Z,1023.15
2016-12-08T06:44:19.036Z,1023.18
2016-12-08T06:45:19.015Z,1023.17
2016-12-08T06:46:19.323Z,1023.11
2016-12-08T06:47:19.078Z,1023.18
2016-12-08T06:48:19.033Z,1023.19
2016-12-08T06:49:19.039Z,1023.16
2016-12-08T06:50:19.045Z,1023.19
2016-12-08T06:51:19.052Z,1023.18
2016-12-08T06:52:19.059Z,1023.16
2016-12-08T06:53:19.738Z,1023.26
2016-12-08T06:54:19.070Z,1023.25
2016-12-08T06:55:19.777Z,1023.24
2016-12-08T06:56:19.083Z,1023.27
2016-12-08T06:57:19.088Z,1023.34
2016-12-08T06:58:19.096Z,1023.34
2016-12-08T06:59:19.179Z,1023.32
2016-12-08T07:00:19.105Z,1023.26
2016-12-08T07:01:19.114Z,1023.28
2016-12-08T07:02:19.207Z,1023.29
2016-12-08T07:03:19.126Z,1023.25
2016-12-08T07:04:19.129Z,1023.25
2016-12-08T07:05:19.144Z,1023.23
2016-12-08T07:06:19.144Z,1023.28
2016-12-08T07:07:19.238Z,1023.31
2016-12-08T07:08:19.157Z,1023.27
2016-12-08T07:09:19.163Z,1023.29
2016-12-08T07:10:19.169Z,1023.36
2016-12-08T07:11:19.193Z,1023.4
2016-12-08T07:12:19.194Z,1023.29
2016-12-08T07:13:19.188Z,1023.29
2016-12-08T07:14:19.245Z,1023.33
2016-12-08T07:15:19.199Z,1023.27
2016-12-08T07:16:20.148Z,1023.26
2016-12-08T07:17:19.213Z,1023.29
2016-12-08T07:18:19.249Z,1023.27
2016-12-08T07:19:19.274Z,1023.35
2016-12-08T07:20:19.283Z,1023.28
2016-12-08T07:21:19.289Z,1023.28
2016-12-08T07:22:19.242Z,1023.25
2016-12-08T07:23:19.299Z,1023.29
2016-12-08T07:24:19.256Z,1023.29
2016-12-08T07:25:19.262Z,1023.28
2016-12-08T07:26:19.269Z,1023.28
2016-12-08T07:27:19.274Z,1023.23
2016-12-08T07:28:19.280Z,1023.24
2016-12-08T07:29:19.286Z,1023.26
2016-12-08T07:30:19.356Z,1023.21
2016-12-08T07:31:19.406Z,1023.21
2016-12-08T07:32:19.373Z,1023.25
2016-12-08T07:33:19.310Z,1023.23
2016-12-08T07:34:19.432Z,1023.27
2016-12-08T07:35:19.324Z,1023.34
2016-12-08T07:36:19.413Z,1023.34
2016-12-08T07:37:20.154Z,1023.28
2016-12-08T07:38:19.346Z,1023.22
2016-12-08T07:39:19.404Z,1023.19
2016-12-08T07:40:19.355Z,1023.19
2016-12-08T07:41:19.360Z,1023.17
2016-12-08T07:42:19.430Z,1023.18
2016-12-08T07:43:19.372Z,1023.2
2016-12-08T07:44:19.468Z,1023.21
2016-12-08T07:45:19.435Z,1023.17
2016-12-08T07:46:19.389Z,1023.19
2016-12-08T07:47:19.491Z,1023.19
2016-12-08T07:48:19.451Z,1023.14
2016-12-08T07:49:19.475Z,1023.23
2016-12-08T07:50:19.453Z,1023.22
2016-12-08T07:51:19.422Z,1023.12
2016-12-08T07:52:19.499Z,1023.06
2016-12-08T07:53:19.435Z,1023.14
2016-12-08T07:54:19.491Z,1023.18
2016-12-08T07:55:19.555Z,1023.2
2016-12-08T07:56:19.491Z,1023.19
2016-12-08T07:57:19.551Z,1023.15
2016-12-08T07:58:20.493Z,1023.12
2016-12-08T07:59:19.473Z,1023.17
2016-12-08T08:00:19.516Z,1023.13
2016-12-08T08:01:19.575Z,1023.15
2016-12-08T08:02:19.541Z,1023.15
2016-12-08T08:03:19.565Z,1023.15
2016-12-08T08:04:19.504Z,1023.19
2016-12-08T08:05:19.607Z,1023.13
2016-12-08T08:06:19.559Z,1023.16
2016-12-08T08:07:19.524Z,1023.16
2016-12-08T08:08:19.532Z,1023.11
2016-12-08T08:09:19.537Z,1023.19
2016-12-08T08:10:20.364Z,1023.15
2016-12-08T08:11:19.552Z,1023.13
2016-12-08T08:12:19.607Z,1023.19
2016-12-08T08:13:19.562Z,1023.2
2016-12-08T08:14:19.632Z,1023.23
2016-12-08T08:15:19.623Z,1023.19
2016-12-08T08:16:19.599Z,1023.21
2016-12-08T08:17:20.391Z,1023.23
2016-12-08T08:18:19.645Z,1023.27
2016-12-08T08:19:19.629Z,1023.23
2016-12-08T08:20:19.611Z,1023.27
2016-12-08T08:21:19.616Z,1023.28
2016-12-08T08:22:19.724Z,1023.25
2016-12-08T08:23:19.693Z,1023.3
2016-12-08T08:24:19.687Z,1023.29
2016-12-08T08:25:19.651Z,1023.32
2016-12-08T08:26:19.699Z,1023.29
2016-12-08T08:27:19.747Z,1023.25
2016-12-08T08:28:19.662Z,1023.26
2016-12-08T08:29:19.747Z,1023.22
2016-12-08T08:30:19.677Z,1023.18
2016-12-08T08:31:19.714Z,1023.2
2016-12-08T08:32:19.739Z,1023.26
2016-12-08T08:33:19.699Z,1023.32
2016-12-08T08:34:19.791Z,1023.33
2016-12-08T08:35:19.759Z,1023.27
2016-12-08T08:36:19.716Z,1023.23
2016-12-08T08:37:19.723Z,1023.25
2016-12-08T08:38:19.731Z,1023.25
2016-12-08T08:39:19.736Z,1023.27
2016-12-08T08:40:19.779Z,1023.29
2016-12-08T08:41:19.750Z,1023.26
2016-12-08T08:42:19.759Z,1023.25
2016-12-08T08:43:19.839Z,1023.26
2016-12-08T08:44:19.809Z,1023.23
2016-12-08T08:45:19.781Z,1023.25
2016-12-08T08:46:19.809Z,1023.29
2016-12-08T08:47:19.827Z,1023.25
2016-12-08T08:48:19.849Z,1023.27
2016-12-08T08:49:19.825Z,1023.21
2016-12-08T08:50:19.881Z,1023.21
2016-12-08T08:51:19.819Z,1023.17
2016-12-08T08:52:19.843Z,1023.18
2016-12-08T08:53:19.832Z,1023.13
2016-12-08T08:54:19.840Z,1023.14
2016-12-08T08:55:19.855Z,1023.15
2016-12-08T08:56:19.931Z,1023.12
2016-12-08T08:57:19.941Z,1023.12
2016-12-08T08:58:19.868Z,1023.14
2016-12-08T08:59:19.883Z,1023.13
2016-12-08T09:00:20.607Z,1023.09
2016-12-08T09:01:19.912Z,1023.08
2016-12-08T09:02:19.949Z,1023.02
2016-12-08T09:03:19.974Z,1023
2016-12-08T09:04:19.923Z,1023.03
2016-12-08T09:05:19.949Z,1023.04
2016-12-08T09:06:20.016Z,1022.96
2016-12-08T09:07:19.931Z,1022.94
2016-12-08T09:08:19.987Z,1022.9
2016-12-08T09:09:19.943Z,1022.86
2016-12-08T09:10:20.037Z,1022.89
2016-12-08T09:11:19.976Z,1022.81
2016-12-08T09:12:19.966Z,1022.79
2016-12-08T09:13:19.973Z,1022.81
2016-12-08T09:14:20.052Z,1022.78
2016-12-08T09:15:19.988Z,1022.78
2016-12-08T09:16:20.022Z,1022.76
2016-12-08T09:17:20.983Z,1022.78
2016-12-08T09:18:20.092Z,1022.77
2016-12-08T09:19:20.016Z,1022.69
2016-12-08T09:20:20.071Z,1022.72
2016-12-08T09:21:20.081Z,1022.72
2016-12-08T09:22:20.063Z,1022.71
2016-12-08T09:23:20.069Z,1022.74
2016-12-08T09:24:20.055Z,1022.75
2016-12-08T09:25:20.146Z,1022.82
2016-12-08T09:26:20.065Z,1022.84
2016-12-08T09:27:20.100Z,1022.8
2016-12-08T09:28:20.133Z,1022.79
2016-12-08T09:29:20.136Z,1022.79
2016-12-08T09:30:20.142Z,1022.83
2016-12-08T09:31:20.157Z,1022.87
2016-12-08T09:32:20.218Z,1022.82
2016-12-08T09:33:20.168Z,1022.82
2016-12-08T09:34:20.170Z,1022.82
2016-12-08T09:35:20.205Z,1022.86
2016-12-08T09:36:20.184Z,1022.87
2016-12-08T09:37:20.222Z,1022.91
2016-12-08T09:38:20.167Z,1022.94
2016-12-08T09:39:20.260Z,1022.87
2016-12-08T09:40:20.162Z,1022.88
2016-12-08T09:41:20.169Z,1022.87
2016-12-08T09:42:20.176Z,1022.86
2016-12-08T09:43:20.208Z,1022.84
2016-12-08T09:44:20.192Z,1022.84
2016-12-08T09:45:20.264Z,1022.87
2016-12-08T09:46:20.305Z,1022.9
2016-12-08T09:47:20.216Z,1022.86
2016-12-08T09:48:20.241Z,1022.87
2016-12-08T09:49:20.223Z,1022.88
2016-12-08T09:50:20.315Z,1022.87
2016-12-08T09:51:20.251Z,1022.91
2016-12-08T09:52:20.324Z,1022.95
2016-12-08T09:53:20.316Z,1022.96
2016-12-08T09:54:20.310Z,1022.97
2016-12-08T09:55:20.341Z,1022.99
2016-12-08T09:56:20.274Z,1022.98
2016-12-08T09:57:20.376Z,1022.99
2016-12-08T09:58:20.321Z,1022.89
2016-12-08T09:59:20.295Z,1022.93
2016-12-08T10:00:20.329Z,1022.88
2016-12-08T10:01:20.318Z,1022.9
2016-12-08T10:02:20.367Z,1022.88
2016-12-08T10:03:20.409Z,1022.91
2016-12-08T10:04:20.331Z,1022.93
2016-12-08T10:05:20.418Z,1022.9
2016-12-08T10:06:20.344Z,1022.92
2016-12-08T10:07:20.375Z,1022.87
2016-12-08T10:08:20.440Z,1022.92
2016-12-08T10:09:20.367Z,1022.82
2016-12-08T10:10:20.373Z,1022.87
2016-12-08T10:11:20.381Z,1022.8
2016-12-08T10:12:20.441Z,1022.82
2016-12-08T10:13:20.440Z,1022.84
2016-12-08T10:14:20.426Z,1022.84
2016-12-08T10:15:20.457Z,1022.86
2016-12-08T10:16:20.502Z,1022.81
2016-12-08T10:17:20.476Z,1022.81
2016-12-08T10:18:20.513Z,1022.85
2016-12-08T10:19:20.470Z,1022.78
2016-12-08T10:20:20.496Z,1022.82
2016-12-08T10:21:20.454Z,1022.84
2016-12-08T10:22:20.534Z,1022.89
2016-12-08T10:23:20.468Z,1022.86
2016-12-08T10:24:20.561Z,1022.93
2016-12-08T10:25:20.532Z,1022.85
2016-12-08T10:26:20.490Z,1022.91
2016-12-08T10:27:20.505Z,1022.87
2016-12-08T10:28:20.600Z,1022.89
2016-12-08T10:29:20.539Z,1022.86
2016-12-08T10:30:20.520Z,1022.91
2016-12-08T10:31:20.525Z,1022.9
2016-12-08T10:32:20.580Z,1022.94
2016-12-08T10:33:20.590Z,1022.94
2016-12-08T10:34:20.597Z,1022.87
2016-12-08T10:35:20.555Z,1022.81
2016-12-08T10:36:20.633Z,1022.79
2016-12-08T10:37:20.655Z,1022.76
2016-12-08T10:38:20.587Z,1022.72
2016-12-08T10:39:20.631Z,1022.67
2016-12-08T10:40:20.639Z,1022.67
2016-12-08T10:41:20.607Z,1022.66
2016-12-08T10:42:20.604Z,1022.68
2016-12-08T10:43:20.611Z,1022.67
2016-12-08T10:44:20.616Z,1022.58
2016-12-08T10:45:20.704Z,1022.61
2016-12-08T10:46:21.036Z,1022.62
2016-12-08T10:47:20.638Z,1022.56
2016-12-08T10:48:20.725Z,1022.55
2016-12-08T10:49:20.653Z,1022.54
2016-12-08T10:50:20.696Z,1022.48
2016-12-08T10:51:20.752Z,1022.46
2016-12-08T10:52:20.785Z,1022.4
2016-12-08T10:53:20.722Z,1022.33
2016-12-08T10:54:20.688Z,1022.33
2016-12-08T10:55:20.696Z,1022.35
2016-12-08T10:56:20.703Z,1022.29
2016-12-08T10:57:20.731Z,1022.26
2016-12-08T10:58:20.771Z,1022.26
2016-12-08T10:59:20.729Z,1022.18
2016-12-08T11:00:20.732Z,1022.19
2016-12-08T11:01:20.806Z,1022.15
2016-12-08T11:02:21.420Z,1022.17
2016-12-08T11:03:20.755Z,1022.14
2016-12-08T11:04:20.794Z,1022.09
2016-12-08T11:05:20.828Z,1022.1
2016-12-08T11:06:20.854Z,1022.12
2016-12-08T11:07:20.891Z,1022.06
2016-12-08T11:08:20.787Z,1022.06
2016-12-08T11:09:20.797Z,1022.07
2016-12-08T11:10:20.858Z,1022.04
2016-12-08T11:11:20.900Z,1022
2016-12-08T11:12:20.886Z,1022.01
2016-12-08T11:13:20.823Z,1022.08
2016-12-08T11:14:20.908Z,1022.05
2016-12-08T11:15:20.913Z,1022.02
2016-12-08T11:16:20.854Z,1021.98
2016-12-08T11:17:20.896Z,1022.01
2016-12-08T11:18:20.860Z,1022.01
2016-12-08T11:19:20.952Z,1022.02
2016-12-08T11:20:20.871Z,1021.95
2016-12-08T11:21:20.880Z,1021.93
2016-12-08T11:22:20.889Z,1021.97
2016-12-08T11:23:20.894Z,1021.99
2016-12-08T11:24:22.000Z,1022.01
2016-12-08T11:25:20.997Z,1021.97
2016-12-08T11:26:20.940Z,1021.95
2016-12-08T11:27:20.999Z,1022.02
2016-12-08T11:28:21.006Z,1022.06
2016-12-08T11:29:20.991Z,1022.12
2016-12-08T11:30:20.952Z,1022
2016-12-08T11:31:20.951Z,1022.03
2016-12-08T11:32:21.029Z,1021.97
2016-12-08T11:33:20.966Z,1021.98
2016-12-08T11:34:20.971Z,1021.96
2016-12-08T11:35:20.979Z,1021.98
2016-12-08T11:36:20.987Z,1021.93
2016-12-08T11:37:21.076Z,1021.98
2016-12-08T11:38:21.029Z,1022.04
2016-12-08T11:39:21.067Z,1021.95
2016-12-08T11:40:21.065Z,1021.93
2016-12-08T11:41:21.023Z,1021.91
2016-12-08T11:42:21.082Z,1021.99
2016-12-08T11:43:21.036Z,1021.89
2016-12-08T11:44:21.139Z,1021.91
2016-12-08T11:45:21.051Z,1021.87
2016-12-08T11:46:21.145Z,1021.88
2016-12-08T11:47:21.064Z,1021.89
2016-12-08T11:48:21.072Z,1021.91
2016-12-08T11:49:21.078Z,1021.86
2016-12-08T11:50:21.129Z,1021.91
2016-12-08T11:51:21.093Z,1021.87
2016-12-08T11:52:21.150Z,1021.86
2016-12-08T11:53:21.366Z,1021.8
2016-12-08T11:54:21.116Z,1021.76
2016-12-08T11:55:21.193Z,1021.69
2016-12-08T11:56:21.229Z,1021.7
2016-12-08T11:57:21.137Z,1021.64
2016-12-08T11:58:21.203Z,1021.64
2016-12-08T11:59:21.151Z,1021.57
2016-12-08T12:00:21.245Z,1021.53
2016-12-08T12:01:21.241Z,1021.54
2016-12-08T12:02:21.171Z,1021.52
2016-12-08T12:03:21.180Z,1021.54
2016-12-08T12:04:21.186Z,1021.55
2016-12-08T12:05:21.194Z,1021.56
2016-12-08T12:06:21.218Z,1021.47
2016-12-08T12:07:21.231Z,1021.48